Time;durP1;ratioP1;P1;durP2;ratioP2;P2;SDS_P1;SDS_P2;PMS_P1;PMS_P2;Temp;Humidity;BMP_temperature;BMP_pressure;BME280_temperature;BME280_humidity;BME280_pressure;Samples;Min_cycle;Max_cycle;Signal;HPM_P1;HPM_P2
2020/05/17 00:02:31;;;;;;;11.6;9.550001;;;;;;;6.5;71.30469;95455.97;;;;
2020/05/17 00:08:56;;;;;;;10.65;9.35;;;;;;;6.31;71.52637;95460.83;;;;
2020/05/17 00:16:05;;;;;;;10.65;9.35;;;;;;;6.31;71.52637;95460.83;;;;
2020/05/17 00:17:35;;;;;;;10.65;9.35;;;;;;;6.31;71.52637;95460.83;;;;
2020/05/17 00:45:13;;;;;;;10.25;9.2;;;;;;;5.9;72.12695;95436.84;;;;
2020/05/17 01:03:48;;;;;;;10.3;9.200001;;;;;;;5.64;72.56934;95429.65;;;;
2020/05/17 01:05:43;;;;;;;10.3;9.200001;;;;;;;5.64;72.56934;95429.65;;;;
2020/05/17 01:17:43;;;;;;;11.2;10;;;;;;;5.49;72.79785;95429.81;;;;
2020/05/17 01:18:57;;;;;;;11.2;10;;;;;;;5.49;72.79785;95429.81;;;;
2020/05/17 01:20:16;;;;;;;11.2;10;;;;;;;5.49;72.79785;95429.81;;;;
2020/05/17 01:27:33;;;;;;;11.3;10.05;;;;;;;5.43;72.96777;95435.57;;;;
2020/05/17 01:33:53;;;;;;;13;10.35;;;;;;;5.3;73.14648;95428.31;;;;
2020/05/17 01:35:24;;;;;;;13;10.35;;;;;;;5.3;73.14648;95428.31;;;;
2020/05/17 01:37:37;;;;;;;13;10.35;;;;;;;5.3;73.14648;95428.31;;;;
2020/05/17 01:49:08;;;;;;;13.25;10.95;;;;;;;5.26;73.35059;95431.16;;;;
2020/05/17 02:19:42;;;;;;;14;11.9;;;;;;;5.07;74.02734;95445.17;;;;
2020/05/17 02:26:33;;;;;;;14.9;12.1;;;;;;;5.03;74.32813;95439.92;;;;
2020/05/17 02:44:18;;;;;;;15.05;11.8;;;;;;;4.91;74.5498;95447.75;;;;
2020/05/17 03:12:22;;;;;;;16.55;13.25;;;;;;;4.95;75.26367;95449.02;;;;
2020/05/17 03:52:01;;;;;;;19.75;16.45;;;;;;;5.22;76.56641;95482.09;;;;
2020/05/17 03:59:49;;;;;;;19.75;16.45;;;;;;;5.22;76.56641;95482.09;;;;
2020/05/17 04:06:19;;;;;;;18.75;15.3;;;;;;;5.26;76.86914;95491.8;;;;
2020/05/17 04:12:31;;;;;;;18.75;15.3;;;;;;;5.35;77.26563;95497.72;;;;
2020/05/17 04:13:31;;;;;;;18.75;15.3;;;;;;;5.35;77.26563;95497.72;;;;
2020/05/17 04:15:39;;;;;;;18.75;15.3;;;;;;;5.35;77.26563;95497.72;;;;
2020/05/17 04:17:14;;;;;;;18.75;15.3;;;;;;;5.35;77.26563;95497.72;;;;
2020/05/17 04:18:23;;;;;;;18.75;15.3;;;;;;;5.35;77.26563;95497.72;;;;
2020/05/17 04:19:23;;;;;;;18.75;15.3;;;;;;;5.35;77.26563;95497.72;;;;
2020/05/17 04:20:23;;;;;;;18.75;15.3;;;;;;;5.35;77.26563;95497.72;;;;
2020/05/17 04:21:24;;;;;;;18.55;16.15;;;;;;;5.42;77.62598;95501.34;;;;
2020/05/17 04:22:24;;;;;;;18.55;16.15;;;;;;;5.42;77.62598;95501.34;;;;
2020/05/17 04:23:25;;;;;;;18.55;16.15;;;;;;;5.42;77.62598;95501.34;;;;
2020/05/17 04:24:25;;;;;;;18.55;16.15;;;;;;;5.42;77.62598;95501.34;;;;
2020/05/17 04:25:25;;;;;;;18.55;16.15;;;;;;;5.42;77.62598;95501.34;;;;
2020/05/17 04:26:26;;;;;;;18.55;16.15;;;;;;;5.42;77.62598;95501.34;;;;
2020/05/17 04:27:26;;;;;;;18.55;16.15;;;;;;;5.42;77.62598;95501.34;;;;
2020/05/17 04:28:27;;;;;;;18.55;16.15;;;;;;;5.42;77.62598;95501.34;;;;
2020/05/17 04:29:27;;;;;;;18.55;16.15;;;;;;;5.42;77.62598;95501.34;;;;
2020/05/17 04:30:28;;;;;;;18.55;16.15;;;;;;;5.42;77.62598;95501.34;;;;
2020/05/17 04:31:28;;;;;;;18.55;16.15;;;;;;;5.42;77.62598;95501.34;;;;
2020/05/17 04:32:28;;;;;;;19.65;16.9;;;;;;;5.59;78.03906;95510.19;;;;
2020/05/17 04:33:29;;;;;;;19.65;16.9;;;;;;;5.59;78.03906;95510.19;;;;
2020/05/17 04:34:30;;;;;;;19.65;16.9;;;;;;;5.59;78.03906;95510.19;;;;
2020/05/17 04:35:30;;;;;;;19.65;16.9;;;;;;;5.59;78.03906;95510.19;;;;
2020/05/17 04:36:31;;;;;;;19.65;16.9;;;;;;;5.59;78.03906;95510.19;;;;
2020/05/17 04:37:31;;;;;;;19.65;16.9;;;;;;;5.59;78.03906;95510.19;;;;
2020/05/17 04:38:32;;;;;;;19.65;16.9;;;;;;;5.59;78.03906;95510.19;;;;
2020/05/17 04:39:32;;;;;;;19.65;16.9;;;;;;;5.59;78.03906;95510.19;;;;
2020/05/17 04:40:33;;;;;;;19.65;16.9;;;;;;;5.59;78.03906;95510.19;;;;
2020/05/17 04:41:33;;;;;;;19.65;16.9;;;;;;;5.59;78.03906;95510.19;;;;
2020/05/17 04:42:34;;;;;;;20.1;17.95;;;;;;;5.76;78.2998;95512.41;;;;
2020/05/17 04:43:34;;;;;;;20.1;17.95;;;;;;;5.76;78.2998;95512.41;;;;
2020/05/17 04:44:35;;;;;;;20.1;17.95;;;;;;;5.76;78.2998;95512.41;;;;
2020/05/17 04:45:35;;;;;;;20.1;17.95;;;;;;;5.76;78.2998;95512.41;;;;
2020/05/17 04:46:35;;;;;;;20.1;17.95;;;;;;;5.76;78.2998;95512.41;;;;
2020/05/17 04:47:36;;;;;;;20.1;17.95;;;;;;;5.76;78.2998;95512.41;;;;
2020/05/17 04:48:36;;;;;;;20.1;17.95;;;;;;;5.76;78.2998;95512.41;;;;
2020/05/17 04:49:37;;;;;;;20.1;17.95;;;;;;;5.76;78.2998;95512.41;;;;
2020/05/17 04:50:37;;;;;;;20.1;17.95;;;;;;;5.76;78.2998;95512.41;;;;
2020/05/17 04:51:38;;;;;;;20.1;17.95;;;;;;;5.76;78.2998;95512.41;;;;
2020/05/17 04:52:45;;;;;;;20.1;17.95;;;;;;;5.76;78.2998;95512.41;;;;
2020/05/17 04:53:46;;;;;;;23.8;20.65;;;;;;;6.09;78.67871;95525.44;;;;
2020/05/17 04:54:46;;;;;;;23.8;20.65;;;;;;;6.09;78.67871;95525.44;;;;
2020/05/17 04:55:47;;;;;;;23.8;20.65;;;;;;;6.09;78.67871;95525.44;;;;
2020/05/17 04:56:47;;;;;;;23.8;20.65;;;;;;;6.09;78.67871;95525.44;;;;
2020/05/17 04:57:47;;;;;;;23.8;20.65;;;;;;;6.09;78.67871;95525.44;;;;
2020/05/17 04:58:49;;;;;;;23.8;20.65;;;;;;;6.09;78.67871;95525.44;;;;
2020/05/17 04:59:49;;;;;;;23.8;20.65;;;;;;;6.09;78.67871;95525.44;;;;
2020/05/17 05:00:50;;;;;;;23.8;20.65;;;;;;;6.09;78.67871;95525.44;;;;
2020/05/17 05:01:50;;;;;;;23.8;20.65;;;;;;;6.09;78.67871;95525.44;;;;
2020/05/17 05:02:51;;;;;;;23.8;20.65;;;;;;;6.09;78.67871;95525.44;;;;
2020/05/17 05:03:51;;;;;;;27.25;22.9;;;;;;;6.47;79.22363;95526.54;;;;
2020/05/17 05:04:52;;;;;;;27.25;22.9;;;;;;;6.47;79.22363;95526.54;;;;
2020/05/17 05:05:52;;;;;;;27.25;22.9;;;;;;;6.47;79.22363;95526.54;;;;
2020/05/17 05:06:53;;;;;;;27.25;22.9;;;;;;;6.47;79.22363;95526.54;;;;
2020/05/17 05:07:53;;;;;;;27.25;22.9;;;;;;;6.47;79.22363;95526.54;;;;
2020/05/17 05:08:53;;;;;;;27.25;22.9;;;;;;;6.47;79.22363;95526.54;;;;
2020/05/17 05:09:54;;;;;;;27.25;22.9;;;;;;;6.47;79.22363;95526.54;;;;
2020/05/17 05:10:54;;;;;;;27.25;22.9;;;;;;;6.47;79.22363;95526.54;;;;
2020/05/17 05:11:55;;;;;;;27.25;22.9;;;;;;;6.47;79.22363;95526.54;;;;
2020/05/17 05:12:56;;;;;;;27.25;22.9;;;;;;;6.47;79.22363;95526.54;;;;
2020/05/17 05:13:56;;;;;;;27.25;22.9;;;;;;;6.47;79.22363;95526.54;;;;
2020/05/17 05:14:57;;;;;;;24.45;21.3;;;;;;;7.05;79.61719;95530.66;;;;
2020/05/17 05:15:58;;;;;;;24.45;21.3;;;;;;;7.05;79.61719;95530.66;;;;
2020/05/17 05:16:58;;;;;;;24.45;21.3;;;;;;;7.05;79.61719;95530.66;;;;
2020/05/17 05:17:58;;;;;;;24.45;21.3;;;;;;;7.05;79.61719;95530.66;;;;
2020/05/17 05:18:59;;;;;;;24.45;21.3;;;;;;;7.05;79.61719;95530.66;;;;
2020/05/17 05:19:59;;;;;;;24.45;21.3;;;;;;;7.05;79.61719;95530.66;;;;
2020/05/17 05:21:00;;;;;;;24.45;21.3;;;;;;;7.05;79.61719;95530.66;;;;
2020/05/17 05:22:00;;;;;;;24.45;21.3;;;;;;;7.05;79.61719;95530.66;;;;
2020/05/17 05:23:01;;;;;;;24.45;21.3;;;;;;;7.05;79.61719;95530.66;;;;
2020/05/17 05:24:01;;;;;;;24.45;21.3;;;;;;;7.05;79.61719;95530.66;;;;
2020/05/17 05:25:02;;;;;;;22.7;19.75;;;;;;;7.67;79.78418;95537.25;;;;
2020/05/17 05:26:03;;;;;;;22.7;19.75;;;;;;;7.67;79.78418;95537.25;;;;
2020/05/17 05:27:04;;;;;;;22.7;19.75;;;;;;;7.67;79.78418;95537.25;;;;
2020/05/17 05:28:04;;;;;;;22.7;19.75;;;;;;;7.67;79.78418;95537.25;;;;
2020/05/17 05:29:05;;;;;;;22.7;19.75;;;;;;;7.67;79.78418;95537.25;;;;
2020/05/17 05:30:05;;;;;;;22.7;19.75;;;;;;;7.67;79.78418;95537.25;;;;
2020/05/17 05:31:06;;;;;;;22.7;19.75;;;;;;;7.67;79.78418;95537.25;;;;
2020/05/17 05:32:06;;;;;;;22.7;19.75;;;;;;;7.67;79.78418;95537.25;;;;
2020/05/17 05:33:06;;;;;;;22.7;19.75;;;;;;;7.67;79.78418;95537.25;;;;
2020/05/17 05:34:07;;;;;;;22.7;19.75;;;;;;;7.67;79.78418;95537.25;;;;
2020/05/17 05:35:07;;;;;;;22.7;19.75;;;;;;;7.67;79.78418;95537.25;;;;
2020/05/17 05:36:08;;;;;;;21;18.9;;;;;;;8.36;80.03613;95545.97;;;;
2020/05/17 05:37:09;;;;;;;21;18.9;;;;;;;8.36;80.03613;95545.97;;;;
2020/05/17 05:38:09;;;;;;;21;18.9;;;;;;;8.36;80.03613;95545.97;;;;
2020/05/17 05:39:09;;;;;;;21;18.9;;;;;;;8.36;80.03613;95545.97;;;;
2020/05/17 05:40:12;;;;;;;21;18.9;;;;;;;8.36;80.03613;95545.97;;;;
2020/05/17 05:41:12;;;;;;;21;18.9;;;;;;;8.36;80.03613;95545.97;;;;
2020/05/17 05:42:13;;;;;;;21;18.9;;;;;;;8.36;80.03613;95545.97;;;;
2020/05/17 05:43:13;;;;;;;21;18.9;;;;;;;8.36;80.03613;95545.97;;;;
2020/05/17 05:44:14;;;;;;;21;18.9;;;;;;;8.36;80.03613;95545.97;;;;
2020/05/17 05:45:14;;;;;;;21;18.9;;;;;;;8.36;80.03613;95545.97;;;;
2020/05/17 05:46:14;;;;;;;17.8;16.1;;;;;;;9.03;80.29785;95557.42;;;;
2020/05/17 05:47:15;;;;;;;17.8;16.1;;;;;;;9.03;80.29785;95557.42;;;;
2020/05/17 05:48:15;;;;;;;17.8;16.1;;;;;;;9.03;80.29785;95557.42;;;;
2020/05/17 05:49:16;;;;;;;17.8;16.1;;;;;;;9.03;80.29785;95557.42;;;;
2020/05/17 05:50:16;;;;;;;17.8;16.1;;;;;;;9.03;80.29785;95557.42;;;;
2020/05/17 05:51:17;;;;;;;17.8;16.1;;;;;;;9.03;80.29785;95557.42;;;;
2020/05/17 05:52:17;;;;;;;17.8;16.1;;;;;;;9.03;80.29785;95557.42;;;;
2020/05/17 05:53:18;;;;;;;17.8;16.1;;;;;;;9.03;80.29785;95557.42;;;;
2020/05/17 05:54:18;;;;;;;17.8;16.1;;;;;;;9.03;80.29785;95557.42;;;;
2020/05/17 05:55:18;;;;;;;17.8;16.1;;;;;;;9.03;80.29785;95557.42;;;;
2020/05/17 05:56:19;;;;;;;17.8;16.1;;;;;;;9.03;80.29785;95557.42;;;;
2020/05/17 05:57:19;;;;;;;15.75;14.3;;;;;;;9.8;80.15332;95559.86;;;;
2020/05/17 05:58:20;;;;;;;15.75;14.3;;;;;;;9.8;80.15332;95559.86;;;;
2020/05/17 05:59:24;;;;;;;15.75;14.3;;;;;;;9.8;80.15332;95559.86;;;;
2020/05/17 06:01:34;;;;;;;15.75;14.3;;;;;;;9.8;80.15332;95559.86;;;;
2020/05/17 06:02:36;;;;;;;15.75;14.3;;;;;;;9.8;80.15332;95559.86;;;;
2020/05/17 06:03:39;;;;;;;15.75;14.3;;;;;;;9.8;80.15332;95559.86;;;;
2020/05/17 06:05:45;;;;;;;15.75;14.3;;;;;;;9.8;80.15332;95559.86;;;;
2020/05/17 06:06:48;;;;;;;15.75;14.3;;;;;;;9.8;80.15332;95559.86;;;;
2020/05/17 06:07:49;;;;;;;14.7;13.25;;;;;;;10.56;79.77734;95581.92;;;;
2020/05/17 06:08:49;;;;;;;14.7;13.25;;;;;;;10.56;79.77734;95581.92;;;;
2020/05/17 06:09:49;;;;;;;14.7;13.25;;;;;;;10.56;79.77734;95581.92;;;;
2020/05/17 06:10:51;;;;;;;14.7;13.25;;;;;;;10.56;79.77734;95581.92;;;;
2020/05/17 06:11:51;;;;;;;14.7;13.25;;;;;;;10.56;79.77734;95581.92;;;;
2020/05/17 06:12:52;;;;;;;14.7;13.25;;;;;;;10.56;79.77734;95581.92;;;;
2020/05/17 06:13:52;;;;;;;14.7;13.25;;;;;;;10.56;79.77734;95581.92;;;;
2020/05/17 06:14:52;;;;;;;14.7;13.25;;;;;;;10.56;79.77734;95581.92;;;;
2020/05/17 06:15:53;;;;;;;14.7;13.25;;;;;;;10.56;79.77734;95581.92;;;;
2020/05/17 06:16:53;;;;;;;14.7;13.25;;;;;;;10.56;79.77734;95581.92;;;;
2020/05/17 06:17:54;;;;;;;14.7;13.25;;;;;;;10.56;79.77734;95581.92;;;;
2020/05/17 06:18:56;;;;;;;13.25;12;;;;;;;11.41;79.48633;95582.26;;;;
2020/05/17 06:20:03;;;;;;;13.25;12;;;;;;;11.41;79.48633;95582.26;;;;
2020/05/17 06:21:20;;;;;;;13.25;12;;;;;;;11.41;79.48633;95582.26;;;;
2020/05/17 06:22:27;;;;;;;13.25;12;;;;;;;11.41;79.48633;95582.26;;;;
2020/05/17 06:23:29;;;;;;;13.25;12;;;;;;;11.41;79.48633;95582.26;;;;
2020/05/17 06:24:30;;;;;;;13.25;12;;;;;;;11.41;79.48633;95582.26;;;;
2020/05/17 06:25:31;;;;;;;13.25;12;;;;;;;11.41;79.48633;95582.26;;;;
2020/05/17 06:26:31;;;;;;;13.25;12;;;;;;;11.41;79.48633;95582.26;;;;
2020/05/17 06:27:31;;;;;;;13.25;12;;;;;;;11.41;79.48633;95582.26;;;;
2020/05/17 06:28:32;;;;;;;13.25;12;;;;;;;11.41;79.48633;95582.26;;;;
2020/05/17 06:29:32;;;;;;;12.65;11.55;;;;;;;12.43;78.75684;95597.44;;;;
2020/05/17 06:30:33;;;;;;;12.65;11.55;;;;;;;12.43;78.75684;95597.44;;;;
2020/05/17 06:31:33;;;;;;;12.65;11.55;;;;;;;12.43;78.75684;95597.44;;;;
2020/05/17 06:32:34;;;;;;;12.65;11.55;;;;;;;12.43;78.75684;95597.44;;;;
2020/05/17 06:33:34;;;;;;;12.65;11.55;;;;;;;12.43;78.75684;95597.44;;;;
2020/05/17 06:34:34;;;;;;;12.65;11.55;;;;;;;12.43;78.75684;95597.44;;;;
2020/05/17 06:35:35;;;;;;;12.65;11.55;;;;;;;12.43;78.75684;95597.44;;;;
2020/05/17 06:36:35;;;;;;;12.65;11.55;;;;;;;12.43;78.75684;95597.44;;;;
2020/05/17 06:37:36;;;;;;;12.65;11.55;;;;;;;12.43;78.75684;95597.44;;;;
2020/05/17 06:38:36;;;;;;;12.65;11.55;;;;;;;12.43;78.75684;95597.44;;;;
2020/05/17 06:39:37;;;;;;;11.1;10.1;;;;;;;14.58;75.56055;95606.81;;;;
2020/05/17 06:40:37;;;;;;;11.1;10.1;;;;;;;14.58;75.56055;95606.81;;;;
2020/05/17 06:41:37;;;;;;;11.1;10.1;;;;;;;14.58;75.56055;95606.81;;;;
2020/05/17 06:42:38;;;;;;;11.1;10.1;;;;;;;14.58;75.56055;95606.81;;;;
2020/05/17 06:43:38;;;;;;;11.1;10.1;;;;;;;14.58;75.56055;95606.81;;;;
2020/05/17 06:44:39;;;;;;;11.1;10.1;;;;;;;14.58;75.56055;95606.81;;;;
2020/05/17 06:45:39;;;;;;;11.1;10.1;;;;;;;14.58;75.56055;95606.81;;;;
2020/05/17 06:46:40;;;;;;;11.1;10.1;;;;;;;14.58;75.56055;95606.81;;;;
2020/05/17 06:47:40;;;;;;;11.1;10.1;;;;;;;14.58;75.56055;95606.81;;;;
2020/05/17 06:48:40;;;;;;;11.1;10.1;;;;;;;14.58;75.56055;95606.81;;;;
2020/05/17 06:50:13;;;;;;;11.1;10.1;;;;;;;14.58;75.56055;95606.81;;;;
2020/05/17 06:51:13;;;;;;;10.05;9.250001;;;;;;;16.77;71.91895;95615.41;;;;
2020/05/17 06:52:14;;;;;;;10.05;9.250001;;;;;;;16.77;71.91895;95615.41;;;;
2020/05/17 06:53:14;;;;;;;10.05;9.250001;;;;;;;16.77;71.91895;95615.41;;;;
2020/05/17 06:54:15;;;;;;;10.05;9.250001;;;;;;;16.77;71.91895;95615.41;;;;
2020/05/17 06:55:15;;;;;;;10.05;9.250001;;;;;;;16.77;71.91895;95615.41;;;;
2020/05/17 06:56:16;;;;;;;10.05;9.250001;;;;;;;16.77;71.91895;95615.41;;;;
2020/05/17 06:57:16;;;;;;;10.05;9.250001;;;;;;;16.77;71.91895;95615.41;;;;
2020/05/17 06:58:16;;;;;;;10.05;9.250001;;;;;;;16.77;71.91895;95615.41;;;;
2020/05/17 06:59:17;;;;;;;10.05;9.250001;;;;;;;16.77;71.91895;95615.41;;;;
2020/05/17 07:00:17;;;;;;;10.05;9.250001;;;;;;;16.77;71.91895;95615.41;;;;
2020/05/17 07:01:18;;;;;;;8.700001;8.000001;;;;;;;18.6;68.4082;95623.42;;;;
2020/05/17 07:02:18;;;;;;;8.700001;8.000001;;;;;;;18.6;68.4082;95623.42;;;;
2020/05/17 07:03:19;;;;;;;8.700001;8.000001;;;;;;;18.6;68.4082;95623.42;;;;
2020/05/17 07:04:19;;;;;;;8.700001;8.000001;;;;;;;18.6;68.4082;95623.42;;;;
2020/05/17 07:05:19;;;;;;;8.700001;8.000001;;;;;;;18.6;68.4082;95623.42;;;;
2020/05/17 07:06:20;;;;;;;8.700001;8.000001;;;;;;;18.6;68.4082;95623.42;;;;
2020/05/17 07:07:31;;;;;;;8.700001;8.000001;;;;;;;18.6;68.4082;95623.42;;;;
2020/05/17 07:08:34;;;;;;;8.700001;8.000001;;;;;;;18.6;68.4082;95623.42;;;;
2020/05/17 07:09:34;;;;;;;8.700001;8.000001;;;;;;;18.6;68.4082;95623.42;;;;
2020/05/17 07:10:35;;;;;;;8.700001;8.000001;;;;;;;18.6;68.4082;95623.42;;;;
2020/05/17 07:11:35;;;;;;;8.1;7.5;;;;;;;20.1;64.68066;95637.44;;;;
2020/05/17 07:12:36;;;;;;;8.1;7.5;;;;;;;20.1;64.68066;95637.44;;;;
2020/05/17 07:13:36;;;;;;;8.1;7.5;;;;;;;20.1;64.68066;95637.44;;;;
2020/05/17 07:14:37;;;;;;;8.1;7.5;;;;;;;20.1;64.68066;95637.44;;;;
2020/05/17 07:15:37;;;;;;;8.1;7.5;;;;;;;20.1;64.68066;95637.44;;;;
2020/05/17 07:16:37;;;;;;;8.1;7.5;;;;;;;20.1;64.68066;95637.44;;;;
2020/05/17 07:17:38;;;;;;;8.1;7.5;;;;;;;20.1;64.68066;95637.44;;;;
2020/05/17 07:18:38;;;;;;;8.1;7.5;;;;;;;20.1;64.68066;95637.44;;;;
2020/05/17 07:19:39;;;;;;;8.1;7.5;;;;;;;20.1;64.68066;95637.44;;;;
2020/05/17 07:20:39;;;;;;;8.1;7.5;;;;;;;20.1;64.68066;95637.44;;;;
2020/05/17 07:21:40;;;;;;;8.1;7.5;;;;;;;20.1;64.68066;95637.44;;;;
2020/05/17 07:22:40;;;;;;;7.15;6.550001;;;;;;;21.24;61.76563;95651.7;;;;
2020/05/17 07:23:41;;;;;;;7.15;6.550001;;;;;;;21.24;61.76563;95651.7;;;;
2020/05/17 07:24:41;;;;;;;7.15;6.550001;;;;;;;21.24;61.76563;95651.7;;;;
2020/05/17 07:25:41;;;;;;;7.15;6.550001;;;;;;;21.24;61.76563;95651.7;;;;
2020/05/17 07:26:42;;;;;;;7.15;6.550001;;;;;;;21.24;61.76563;95651.7;;;;
2020/05/17 07:27:42;;;;;;;7.15;6.550001;;;;;;;21.24;61.76563;95651.7;;;;
2020/05/17 07:28:43;;;;;;;7.15;6.550001;;;;;;;21.24;61.76563;95651.7;;;;
2020/05/17 07:29:43;;;;;;;7.15;6.550001;;;;;;;21.24;61.76563;95651.7;;;;
2020/05/17 07:31:48;;;;;;;7.15;6.550001;;;;;;;21.24;61.76563;95651.7;;;;
2020/05/17 07:32:49;;;;;;;7.450001;6.850001;;;;;;;21.92;58.7627;95661.66;;;;
2020/05/17 07:33:49;;;;;;;7.450001;6.850001;;;;;;;21.92;58.7627;95661.66;;;;
2020/05/17 07:34:49;;;;;;;7.450001;6.850001;;;;;;;21.92;58.7627;95661.66;;;;
2020/05/17 07:35:50;;;;;;;7.450001;6.850001;;;;;;;21.92;58.7627;95661.66;;;;
2020/05/17 07:36:50;;;;;;;7.450001;6.850001;;;;;;;21.92;58.7627;95661.66;;;;
2020/05/17 07:37:51;;;;;;;7.450001;6.850001;;;;;;;21.92;58.7627;95661.66;;;;
2020/05/17 07:38:51;;;;;;;7.450001;6.850001;;;;;;;21.92;58.7627;95661.66;;;;
2020/05/17 07:39:52;;;;;;;7.450001;6.850001;;;;;;;21.92;58.7627;95661.66;;;;
2020/05/17 07:40:52;;;;;;;7.450001;6.850001;;;;;;;21.92;58.7627;95661.66;;;;
2020/05/17 07:41:52;;;;;;;7.450001;6.850001;;;;;;;21.92;58.7627;95661.66;;;;
2020/05/17 07:42:53;;;;;;;7.450001;6.850001;;;;;;;21.92;58.7627;95661.66;;;;
2020/05/17 07:43:53;;;;;;;7.45;6.75;;;;;;;22.9;55.61621;95666.64;;;;
2020/05/17 07:44:54;;;;;;;7.45;6.75;;;;;;;22.9;55.61621;95666.64;;;;
2020/05/17 07:45:54;;;;;;;7.45;6.75;;;;;;;22.9;55.61621;95666.64;;;;
2020/05/17 07:46:55;;;;;;;7.45;6.75;;;;;;;22.9;55.61621;95666.64;;;;
2020/05/17 07:47:55;;;;;;;7.45;6.75;;;;;;;22.9;55.61621;95666.64;;;;
2020/05/17 07:48:55;;;;;;;7.45;6.75;;;;;;;22.9;55.61621;95666.64;;;;
2020/05/17 07:49:56;;;;;;;7.45;6.75;;;;;;;22.9;55.61621;95666.64;;;;
2020/05/17 07:50:57;;;;;;;7.45;6.75;;;;;;;22.9;55.61621;95666.64;;;;
2020/05/17 07:51:57;;;;;;;7.45;6.75;;;;;;;22.9;55.61621;95666.64;;;;
2020/05/17 07:52:58;;;;;;;7.45;6.75;;;;;;;22.9;55.61621;95666.64;;;;
2020/05/17 07:53:58;;;;;;;6.649999;6.149999;;;;;;;23.17;53.06934;95669.26;;;;
2020/05/17 07:54:59;;;;;;;6.649999;6.149999;;;;;;;23.17;53.06934;95669.26;;;;
2020/05/17 07:55:59;;;;;;;6.649999;6.149999;;;;;;;23.17;53.06934;95669.26;;;;
2020/05/17 07:56:59;;;;;;;6.649999;6.149999;;;;;;;23.17;53.06934;95669.26;;;;
2020/05/17 07:58:00;;;;;;;6.649999;6.149999;;;;;;;23.17;53.06934;95669.26;;;;
2020/05/17 07:59:00;;;;;;;6.649999;6.149999;;;;;;;23.17;53.06934;95669.26;;;;
2020/05/17 08:00:01;;;;;;;6.649999;6.149999;;;;;;;23.17;53.06934;95669.26;;;;
2020/05/17 08:01:03;;;;;;;6.649999;6.149999;;;;;;;23.17;53.06934;95669.26;;;;
2020/05/17 08:02:03;;;;;;;6.649999;6.149999;;;;;;;23.17;53.06934;95669.26;;;;
2020/05/17 08:03:04;;;;;;;6.649999;6.149999;;;;;;;23.17;53.06934;95669.26;;;;
2020/05/17 08:04:05;;;;;;;6.649999;6.149999;;;;;;;23.17;53.06934;95669.26;;;;
2020/05/17 08:05:13;;;;;;;6.199999;5.6;;;;;;;21.61;52.85059;95669.62;;;;
2020/05/17 08:07:24;;;;;;;6.199999;5.6;;;;;;;21.61;52.85059;95669.62;;;;
2020/05/17 08:08:42;;;;;;;6.199999;5.6;;;;;;;21.61;52.85059;95669.62;;;;
2020/05/17 08:10:04;;;;;;;6.199999;5.6;;;;;;;21.61;52.85059;95669.62;;;;
2020/05/17 08:11:06;;;;;;;6.199999;5.6;;;;;;;21.61;52.85059;95669.62;;;;
2020/05/17 08:12:08;;;;;;;6.199999;5.6;;;;;;;21.61;52.85059;95669.62;;;;
2020/05/17 08:13:09;;;;;;;6.199999;5.6;;;;;;;21.61;52.85059;95669.62;;;;
2020/05/17 08:14:09;;;;;;;6.199999;5.6;;;;;;;21.61;52.85059;95669.62;;;;
2020/05/17 08:15:10;;;;;;;7.95;7.149999;;;;;;;21.16;52.2793;95674.72;;;;
2020/05/17 08:16:18;;;;;;;7.95;7.149999;;;;;;;21.16;52.2793;95674.72;;;;
2020/05/17 08:17:29;;;;;;;7.95;7.149999;;;;;;;21.16;52.2793;95674.72;;;;
2020/05/17 08:18:30;;;;;;;7.95;7.149999;;;;;;;21.16;52.2793;95674.72;;;;
2020/05/17 08:19:32;;;;;;;7.95;7.149999;;;;;;;21.16;52.2793;95674.72;;;;
2020/05/17 08:20:41;;;;;;;7.95;7.149999;;;;;;;21.16;52.2793;95674.72;;;;
2020/05/17 08:21:47;;;;;;;7.95;7.149999;;;;;;;21.16;52.2793;95674.72;;;;
2020/05/17 08:23:03;;;;;;;7.95;7.149999;;;;;;;21.16;52.2793;95674.72;;;;
2020/05/17 08:32:47;;;;;;;6.649999;6.149999;;;;;;;22.45;51.27832;95681.59;;;;
2020/05/17 08:34:09;;;;;;;6.649999;6.149999;;;;;;;22.45;51.27832;95681.59;;;;
2020/05/17 08:35:18;;;;;;;6.649999;6.149999;;;;;;;22.45;51.27832;95681.59;;;;
2020/05/17 08:36:25;;;;;;;6.199999;5.699999;;;;;;;24.78;47.83887;95693.7;;;;
2020/05/17 08:37:31;;;;;;;6.199999;5.699999;;;;;;;24.78;47.83887;95693.7;;;;
2020/05/17 08:38:38;;;;;;;6.199999;5.699999;;;;;;;24.78;47.83887;95693.7;;;;
2020/05/17 08:40:02;;;;;;;6.849999;6.299999;;;;;;;25.72;43.80664;95687.27;;;;
2020/05/17 08:41:09;;;;;;;6.849999;6.299999;;;;;;;25.72;43.80664;95687.27;;;;
2020/05/17 08:42:15;;;;;;;6.599999;6;;;;;;;26.73;40.50977;95699.38;;;;
2020/05/17 08:43:21;;;;;;;6.599999;6;;;;;;;26.73;40.50977;95699.38;;;;
2020/05/17 08:44:25;;;;;;;6.149999;5.649999;;;;;;;27.71;37.95605;95695.92;;;;
2020/05/17 08:45:50;;;;;;;6.149999;5.649999;;;;;;;27.71;37.95605;95695.92;;;;
2020/05/17 08:46:56;;;;;;;6.349999;5.749999;;;;;;;28.64;36.18555;95701.06;;;;
2020/05/17 08:48:03;;;;;;;6.349999;5.749999;;;;;;;28.64;36.18555;95701.06;;;;
2020/05/17 08:49:44;;;;;;;6.349999;5.749999;;;;;;;28.64;36.18555;95701.06;;;;
2020/05/17 08:51:20;;;;;;;6.349999;5.749999;;;;;;;28.64;36.18555;95701.06;;;;
2020/05/17 08:52:23;;;;;;;6;5.25;;;;;;;30.57;33.8584;95700.56;;;;
2020/05/17 08:53:26;;;;;;;6;5.25;;;;;;;30.57;33.8584;95700.56;;;;
2020/05/17 08:54:33;;;;;;;6;5.25;;;;;;;30.57;33.8584;95700.56;;;;
2020/05/17 08:55:53;;;;;;;5.5;5;;;;;;;31.43;32.11719;95706.89;;;;
2020/05/17 08:57:02;;;;;;;5.5;5;;;;;;;31.43;32.11719;95706.89;;;;
2020/05/17 08:58:06;;;;;;;5.799999;5.3;;;;;;;32.06;30.50195;95704.75;;;;
2020/05/17 08:59:12;;;;;;;5.799999;5.3;;;;;;;32.06;30.50195;95704.75;;;;
2020/05/17 09:00:18;;;;;;;5.799999;5.3;;;;;;;32.06;30.50195;95704.75;;;;
2020/05/17 09:06:37;;;;;;;5.149999;4.75;;;;;;;30.11;29.79297;95711.66;;;;
2020/05/17 09:07:51;;;;;;;5.149999;4.75;;;;;;;30.11;29.79297;95711.66;;;;
2020/05/17 09:08:52;;;;;;;6.100001;4.900001;;;;;;;29.64;29.86426;95710.44;;;;
2020/05/17 09:09:57;;;;;;;6.100001;4.900001;;;;;;;29.64;29.86426;95710.44;;;;
2020/05/17 09:11:03;;;;;;;5.15;4.649999;;;;;;;29.83;29.80859;95715.7;;;;
2020/05/17 09:12:10;;;;;;;5.15;4.649999;;;;;;;29.83;29.80859;95715.7;;;;
2020/05/17 09:13:17;;;;;;;5.15;4.649999;;;;;;;29.83;29.80859;95715.7;;;;
2020/05/17 09:14:26;;;;;;;5.149999;4.649999;;;;;;;30.64;29.27246;95711.75;;;;
2020/05/17 09:15:31;;;;;;;5.149999;4.649999;;;;;;;30.64;29.27246;95711.75;;;;
2020/05/17 09:16:37;;;;;;;6.15;5.65;;;;;;;31.51;28.03223;95708.52;;;;
2020/05/17 09:17:40;;;;;;;6.15;5.65;;;;;;;31.51;28.03223;95708.52;;;;
2020/05/17 09:18:41;;;;;;;6.15;5.65;;;;;;;31.51;28.03223;95708.52;;;;
2020/05/17 09:19:41;;;;;;;6.05;5.55;;;;;;;32.24;27.14258;95716.39;;;;
2020/05/17 09:20:42;;;;;;;6.05;5.55;;;;;;;32.24;27.14258;95716.39;;;;
2020/05/17 09:21:43;;;;;;;5.55;5.149999;;;;;;;32.9;26.21191;95720.9;;;;
2020/05/17 09:22:43;;;;;;;5.55;5.149999;;;;;;;32.9;26.21191;95720.9;;;;
2020/05/17 09:23:44;;;;;;;5.55;5.149999;;;;;;;32.9;26.21191;95720.9;;;;
2020/05/17 09:24:44;;;;;;;6.6;5.5;;;;;;;33.5;25.49219;95715.56;;;;
2020/05/17 09:25:44;;;;;;;6.6;5.5;;;;;;;33.5;25.49219;95715.56;;;;
2020/05/17 09:26:45;;;;;;;6.6;5.5;;;;;;;33.5;25.49219;95715.56;;;;
2020/05/17 09:27:45;;;;;;;5.7;5.299999;;;;;;;34.08;24.5752;95715.65;;;;
2020/05/17 09:28:46;;;;;;;5.7;5.299999;;;;;;;34.08;24.5752;95715.65;;;;
2020/05/17 09:29:46;;;;;;;5.7;5.299999;;;;;;;34.08;24.5752;95715.65;;;;
2020/05/17 09:30:47;;;;;;;5.85;5.45;;;;;;;34.67;22.81738;95707.56;;;;
2020/05/17 09:31:47;;;;;;;5.85;5.45;;;;;;;34.67;22.81738;95707.56;;;;
2020/05/17 09:32:47;;;;;;;5.5;5.1;;;;;;;35.09;22.63184;95709.16;;;;
2020/05/17 09:33:48;;;;;;;5.5;5.1;;;;;;;35.09;22.63184;95709.16;;;;
2020/05/17 09:34:48;;;;;;;5.5;5.1;;;;;;;35.09;22.63184;95709.16;;;;
2020/05/17 09:35:49;;;;;;;5.350001;4.95;;;;;;;35.4;22.2793;95703.13;;;;
2020/05/17 09:36:49;;;;;;;5.350001;4.95;;;;;;;35.4;22.2793;95703.13;;;;
2020/05/17 09:37:50;;;;;;;5.900001;5.3;;;;;;;35.72;22.44434;95703.89;;;;
2020/05/17 09:38:50;;;;;;;5.900001;5.3;;;;;;;35.72;22.44434;95703.89;;;;
2020/05/17 09:39:50;;;;;;;5.900001;5.3;;;;;;;35.72;22.44434;95703.89;;;;
2020/05/17 09:40:51;;;;;;;4.55;4.2;;;;;;;36.07;21.36816;95710.89;;;;
2020/05/17 09:41:52;;;;;;;4.55;4.2;;;;;;;36.07;21.36816;95710.89;;;;
2020/05/17 09:42:52;;;;;;;4.55;4.2;;;;;;;36.07;21.36816;95710.89;;;;
2020/05/17 09:43:53;;;;;;;4.900001;4.5;;;;;;;36.38;20.63379;95699.5;;;;
2020/05/17 09:44:53;;;;;;;4.900001;4.5;;;;;;;36.38;20.63379;95699.5;;;;
2020/05/17 09:45:53;;;;;;;4.849999;4.45;;;;;;;36.65;20.24316;95707.11;;;;
2020/05/17 09:46:54;;;;;;;4.849999;4.45;;;;;;;36.65;20.24316;95707.11;;;;
2020/05/17 09:47:54;;;;;;;4.849999;4.45;;;;;;;36.65;20.24316;95707.11;;;;
2020/05/17 09:48:54;;;;;;;4.8;4.400001;;;;;;;36.91;20.36914;95703.69;;;;
2020/05/17 09:49:55;;;;;;;4.8;4.400001;;;;;;;36.91;20.36914;95703.69;;;;
2020/05/17 09:50:55;;;;;;;4.8;4.400001;;;;;;;36.91;20.36914;95703.69;;;;
2020/05/17 09:51:56;;;;;;;4.5;4.2;;;;;;;37.08;20.81543;95700.95;;;;
2020/05/17 09:52:56;;;;;;;4.5;4.2;;;;;;;37.08;20.81543;95700.95;;;;
2020/05/17 09:53:57;;;;;;;4.75;4.4;;;;;;;37.12;20.59766;95707;;;;